Time;durP1;ratioP1;P1;durP2;ratioP2;P2;SDS_P1;SDS_P2;PMS_P1;PMS_P2;Temp;Humidity;BMP_temperature;BMP_pressure;BME280_temperature;BME280_humidity;BME280_pressure;Samples;Min_cycle;Max_cycle;Signal;HPM_P1;HPM_P2
2023/09/29 00:00:54;;;;;;;48.38;11.38;;;;;;;;;;5134205;28;20103;-70
2023/09/29 00:03:20;;;;;;;;;;;;;;;;;;5116600;28;20498;-70
2023/09/29 00:05:46;;;;;;;46.58;11.52;;;;;;;;;;5116063;28;19922;-71
2023/09/29 00:08:16;;;;;;;39.38;12.27;;;;;;;;;;5134130;28;20104;-70
2023/09/29 00:10:43;;;;;;;43.92;12.23;;;;;;;;;;5115933;28;20055;-70
2023/09/29 00:13:09;;;;;;;38.08;12.45;;;;;;;;;;5133759;28;20542;-70
2023/09/29 00:15:35;;;;;;;39.15;11.77;;;;;;;;;;5135290;28;20039;-70
2023/09/29 00:18:01;;;;;;;45.20;12.83;;;;;;;;;;5139153;28;20191;-70
2023/09/29 00:20:27;;;;;;;51.75;12.70;;;;;;;;;;5138460;28;20276;-71
2023/09/29 00:22:57;;;;;;;46.33;13.50;;;;;;;;;;5134233;28;20043;-71
2023/09/29 00:25:26;;;;;;;47.05;12.70;;;;;;;;;;5133769;28;20039;-72
2023/09/29 00:27:53;;;;;;;43.95;13.20;;;;;;;;;;5134198;28;20402;-70
2023/09/29 00:30:19;;;;;;;46.58;13.25;;;;;;;;;;5135435;27;20058;-70
2023/09/29 00:32:46;;;;;;;45.30;14.40;;;;;;;;;;5119467;27;20059;-70
2023/09/29 00:35:18;;;;;;;42.70;12.82;;;;;;;;;;5137583;27;20050;-71
2023/09/29 00:37:44;;;;;;;44.72;13.27;;;;;;;;;;5119975;27;20092;-71
2023/09/29 00:40:14;;;;;;;43.47;13.32;;;;;;;;;;5119415;27;20134;-71
2023/09/29 00:42:41;;;;;;;42.72;13.05;;;;;;;;;;5137520;27;20054;-71
2023/09/29 00:45:08;;;;;;;37.63;12.32;;;;;;;;;;5137442;27;20050;-71
2023/09/29 00:47:36;;;;;;;53.35;13.75;;;;;;;;;;5137646;27;20050;-72
2023/09/29 00:50:09;;;;;;;49.40;13.82;;;;;;;;;;5102244;27;20061;-70
2023/09/29 00:52:37;;;;;;;51.20;13.82;;;;;;;;;;5137317;27;20383;-71
2023/09/29 00:55:05;;;;;;;54.88;13.50;;;;;;;;;;5119117;27;20043;-70
2023/09/29 00:57:33;;;;;;;45.50;13.50;;;;;;;;;;5136960;27;20547;-71
2023/09/29 01:00:00;;;;;;;50.45;13.63;;;;;;;;;;5137112;27;20058;-71
2023/09/29 01:02:27;;;;;;;50.80;14.35;;;;;;;;;;5136792;27;20184;-72
2023/09/29 01:04:53;;;;;;;47.55;14.00;;;;;;;;;;5136893;27;20050;-71
2023/09/29 01:07:19;;;;;;;44.65;12.90;;;;;;;;;;5118551;27;20046;-72
2023/09/29 01:09:46;;;;;;;45.47;13.23;;;;;;;;;;5136736;27;20043;-71
2023/09/29 01:12:25;;;;;;;44.92;12.88;;;;;;;;;;5118770;27;20047;-70
2023/09/29 01:14:51;;;;;;;42.40;13.38;;;;;;;;;;5137043;27;20062;-71
2023/09/29 01:17:18;;;;;;;52.47;12.70;;;;;;;;;;5136797;27;20043;-71
2023/09/29 01:19:44;;;;;;;46.65;13.13;;;;;;;;;;5136582;27;20126;-70
2023/09/29 01:22:11;;;;;;;58.37;13.47;;;;;;;;;;5136525;27;20082;-71
2023/09/29 01:24:37;;;;;;;42.67;12.80;;;;;;;;;;5119256;27;20095;-71
2023/09/29 01:27:03;;;;;;;44.35;12.57;;;;;;;;;;5136451;27;20049;-70
2023/09/29 01:29:29;;;;;;;42.63;12.10;;;;;;;;;;5117336;27;20105;-71
2023/09/29 01:31:55;;;;;;;40.27;11.67;;;;;;;;;;5119031;27;20437;-70
2023/09/29 01:34:24;;;;;;;43.83;12.23;;;;;;;;;;5136356;27;20083;-71
2023/09/29 01:36:50;;;;;;;46.70;12.70;;;;;;;;;;5136199;27;20047;-70
2023/09/29 01:39:16;;;;;;;51.30;12.15;;;;;;;;;;5136453;27;20394;-71
2023/09/29 01:41:43;;;;;;;52.73;12.37;;;;;;;;;;5135886;27;20091;-72
2023/09/29 01:44:10;;;;;;;43.72;12.27;;;;;;;;;;5118033;27;20047;-70
2023/09/29 01:46:36;;;;;;;39.15;11.38;;;;;;;;;;5117919;27;20043;-71
2023/09/29 01:49:02;;;;;;;43.03;13.02;;;;;;;;;;5136182;27;20050;-71
2023/09/29 01:51:29;;;;;;;44.10;11.90;;;;;;;;;;5136200;27;20039;-71
2023/09/29 01:53:55;;;;;;;37.00;12.02;;;;;;;;;;5117949;27;20051;-71
2023/09/29 01:56:21;;;;;;;45.70;12.30;;;;;;;;;;5136217;27;20097;-71
2023/09/29 01:58:50;;;;;;;43.45;12.48;;;;;;;;;;5117745;27;20051;-71
2023/09/29 02:01:16;;;;;;;52.22;12.63;;;;;;;;;;5117685;27;20054;-70
2023/09/29 02:03:48;;;;;;;43.27;12.47;;;;;;;;;;5118131;27;20047;-71
2023/09/29 02:06:15;;;;;;;46.83;12.65;;;;;;;;;;5118010;27;20059;-70
2023/09/29 02:08:42;;;;;;;46.67;13.38;;;;;;;;;;5117286;27;20055;-70
2023/09/29 02:11:08;;;;;;;46.97;13.13;;;;;;;;;;5118294;27;20153;-71
2023/09/29 02:13:35;;;;;;;54.80;13.45;;;;;;;;;;5100908;27;20423;-71
2023/09/29 02:16:05;;;;;;;47.05;12.77;;;;;;;;;;5135660;27;20051;-71
2023/09/29 02:18:31;;;;;;;40.45;13.18;;;;;;;;;;5118067;27;20049;-71
2023/09/29 02:20:57;;;;;;;44.30;13.13;;;;;;;;;;5136222;27;20047;-71
2023/09/29 02:23:23;;;;;;;37.37;11.63;;;;;;;;;;5117066;27;20047;-70
2023/09/29 02:25:51;;;;;;;49.23;12.47;;;;;;;;;;5135249;27;20039;-71
2023/09/29 02:28:20;;;;;;;43.47;12.35;;;;;;;;;;5135088;27;20051;-70
2023/09/29 02:30:46;;;;;;;44.70;13.45;;;;;;;;;;5135762;27;20428;-71
2023/09/29 02:33:12;;;;;;;45.15;13.90;;;;;;;;;;5117128;27;20042;-71
2023/09/29 02:35:38;;;;;;;44.00;13.90;;;;;;;;;;5117032;27;20047;-70
2023/09/29 02:38:04;;;;;;;48.72;13.43;;;;;;;;;;5135401;27;20594;-71
2023/09/29 02:40:30;;;;;;;49.35;14.80;;;;;;;;;;5135433;27;20407;-71
2023/09/29 02:42:56;;;;;;;58.70;14.52;;;;;;;;;;5135341;27;20368;-70
2023/09/29 02:45:24;;;;;;;47.57;13.83;;;;;;;;;;5135020;27;20039;-70
2023/09/29 02:47:52;;;;;;;45.28;13.63;;;;;;;;;;5134862;27;20285;-72
2023/09/29 02:50:18;;;;;;;45.22;13.68;;;;;;;;;;5135466;27;20043;-72
2023/09/29 02:52:44;;;;;;;53.17;14.52;;;;;;;;;;5134177;27;20093;-70
2023/09/29 02:55:12;;;;;;;49.90;14.67;;;;;;;;;;5134786;27;20054;-70
2023/09/29 02:57:40;;;;;;;53.75;15.02;;;;;;;;;;5116909;27;20047;-69
2023/09/29 03:00:10;;;;;;;56.65;14.48;;;;;;;;;;5116756;27;20371;-70
2023/09/29 03:02:36;;;;;;;49.95;15.63;;;;;;;;;;5116517;27;20054;-71
2023/09/29 03:05:05;;;;;;;60.73;15.93;;;;;;;;;;5134492;27;20126;-71
2023/09/29 03:07:31;;;;;;;46.65;15.07;;;;;;;;;;5116459;27;20324;-71
2023/09/29 03:10:00;;;;;;;53.33;15.13;;;;;;;;;;5134315;27;20058;-71
2023/09/29 03:12:26;;;;;;;62.27;15.87;;;;;;;;;;5134506;27;20070;-70
2023/09/29 03:14:53;;;;;;;58.15;15.40;;;;;;;;;;5116158;27;20047;-72
2023/09/29 03:17:19;;;;;;;51.50;14.87;;;;;;;;;;5134532;27;20057;-71
2023/09/29 03:19:45;;;;;;;51.63;16.90;;;;;;;;;;5134423;27;20287;-70
2023/09/29 03:22:13;;;;;;;54.63;15.47;;;;;;;;;;5134247;27;20043;-70
2023/09/29 03:24:39;;;;;;;58.50;15.63;;;;;;;;;;5134403;27;20039;-71
2023/09/29 03:27:05;;;;;;;55.78;16.55;;;;;;;;;;5134337;27;20443;-71
2023/09/29 03:29:31;;;;;;;54.37;15.47;;;;;;;;;;5133801;27;20448;-70
2023/09/29 03:31:57;;;;;;;47.70;15.40;;;;;;;;;;5135364;27;20054;-70
2023/09/29 03:34:23;;;;;;;56.67;17.33;;;;;;;;;;5134481;28;20779;-70
2023/09/29 03:36:50;;;;;;;55.70;17.73;;;;;;;;;;5134715;28;20038;-71
2023/09/29 03:39:18;;;;;;;55.92;16.42;;;;;;;;;;5115750;28;20047;-71
2023/09/29 03:41:44;;;;;;;54.05;17.20;;;;;;;;;;5134175;28;20047;-71
2023/09/29 03:44:12;;;;;;;71.87;19.93;;;;;;;;;;5116115;28;20094;-70
2023/09/29 03:46:38;;;;;;;63.42;18.45;;;;;;;;;;5134651;28;20047;-70
2023/09/29 03:49:05;;;;;;;65.07;20.60;;;;;;;;;;5134089;28;20070;-71
2023/09/29 03:51:31;;;;;;;63.30;20.13;;;;;;;;;;5134517;28;20047;-70
2023/09/29 03:53:57;;;;;;;67.80;19.93;;;;;;;;;;5115758;28;20293;-72
2023/09/29 03:56:23;;;;;;;60.42;20.80;;;;;;;;;;5134037;28;20039;-70
2023/09/29 03:58:50;;;;;;;60.88;20.63;;;;;;;;;;5134345;28;20039;-70
2023/09/29 04:01:16;;;;;;;66.57;21.85;;;;;;;;;;5116000;28;20055;-70
2023/09/29 04:03:42;;;;;;;56.22;19.92;;;;;;;;;;5116118;27;20135;-71
2023/09/29 04:06:12;;;;;;;58.73;20.03;;;;;;;;;;5137716;27;20082;-71
2023/09/29 04:08:39;;;;;;;60.40;19.33;;;;;;;;;;5138460;27;20086;-70
2023/09/29 04:11:05;;;;;;;66.15;20.20;;;;;;;;;;5137926;27;20043;-71
2023/09/29 04:13:32;;;;;;;64.20;21.63;;;;;;;;;;5137963;27;20094;-71
2023/09/29 04:15:59;;;;;;;54.77;20.50;;;;;;;;;;5119771;27;20470;-72
2023/09/29 04:18:25;;;;;;;62.63;19.23;;;;;;;;;;5102671;27;20478;-72
2023/09/29 04:20:51;;;;;;;71.63;21.73;;;;;;;;;;5137241;27;20043;-71
2023/09/29 04:23:17;;;;;;;64.03;18.70;;;;;;;;;;5119265;27;20102;-70
2023/09/29 04:25:43;;;;;;;60.67;19.37;;;;;;;;;;5137562;27;20039;-70
2023/09/29 04:28:09;;;;;;;59.03;20.17;;;;;;;;;;5137350;27;20050;-70
2023/09/29 04:30:36;;;;;;;54.03;19.33;;;;;;;;;;5119068;27;20059;-71
2023/09/29 04:33:02;;;;;;;64.10;19.83;;;;;;;;;;5137528;27;20364;-71
2023/09/29 04:35:28;;;;;;;58.97;18.67;;;;;;;;;;5138127;27;20590;-70
2023/09/29 04:37:54;;;;;;;57.45;19.48;;;;;;;;;;5119316;27;20055;-71
2023/09/29 04:40:20;;;;;;;55.43;18.03;;;;;;;;;;5101733;27;20091;-71
2023/09/29 04:42:46;;;;;;;45.83;16.93;;;;;;;;;;5137276;27;20371;-71
2023/09/29 04:45:12;;;;;;;60.55;18.48;;;;;;;;;;5136968;27;20610;-71
2023/09/29 04:47:39;;;;;;;60.00;20.45;;;;;;;;;;5137127;27;20043;-70
2023/09/29 04:50:05;;;;;;;51.97;18.17;;;;;;;;;;5102115;27;20055;-70
2023/09/29 04:52:31;;;;;;;;;;;;;;;;;;5137316;27;20057;-71
2023/09/29 04:54:57;;;;;;;50.08;18.70;;;;;;;;;;5136931;27;20014;-70
2023/09/29 04:57:24;;;;;;;52.57;17.93;;;;;;;;;;5137629;27;20043;-71
2023/09/29 04:59:50;;;;;;;56.87;19.37;;;;;;;;;;5137046;27;20047;-70
2023/09/29 05:02:16;;;;;;;49.83;17.60;;;;;;;;;;5136939;27;20637;-71
2023/09/29 05:04:42;;;;;;;58.15;18.33;;;;;;;;;;5136946;27;20459;-71
2023/09/29 05:07:08;;;;;;;62.17;17.80;;;;;;;;;;5136839;27;20046;-72
2023/09/29 05:09:35;;;;;;;58.90;18.10;;;;;;;;;;5137420;27;20049;-71
2023/09/29 05:12:01;;;;;;;60.67;19.15;;;;;;;;;;5137137;27;20047;-71
2023/09/29 05:14:27;;;;;;;53.80;18.63;;;;;;;;;;5136649;27;20039;-70
2023/09/29 05:16:54;;;;;;;56.20;18.07;;;;;;;;;;5135813;27;20054;-72
2023/09/29 05:19:20;;;;;;;50.88;17.20;;;;;;;;;;5136426;27;20280;-71
2023/09/29 05:21:46;;;;;;;49.87;15.67;;;;;;;;;;5118244;27;20047;-70
2023/09/29 05:24:12;;;;;;;51.77;16.73;;;;;;;;;;5136231;27;20308;-73
2023/09/29 05:26:38;;;;;;;50.83;15.20;;;;;;;;;;5136563;27;20039;-71
2023/09/29 05:29:04;;;;;;;55.80;16.48;;;;;;;;;;5118106;27;20107;-71
2023/09/29 05:31:30;;;;;;;45.70;15.13;;;;;;;;;;5136286;27;20059;-71
2023/09/29 05:33:56;;;;;;;46.92;15.45;;;;;;;;;;5136748;27;20346;-70
2023/09/29 05:36:23;;;;;;;48.72;15.48;;;;;;;;;;5136130;27;20552;-71
2023/09/29 05:38:50;;;;;;;47.10;14.67;;;;;;;;;;5136262;27;20047;-72
2023/09/29 05:41:16;;;;;;;;;;;;;;;;;;5119132;27;20285;-72
2023/09/29 05:43:42;;;;;;;50.13;14.32;;;;;;;;;;5136581;27;19972;-71
2023/09/29 05:46:08;;;;;;;42.80;14.07;;;;;;;;;;5118147;27;20076;-71
2023/09/29 05:48:34;;;;;;;47.63;14.60;;;;;;;;;;5136035;27;20051;-71
2023/09/29 05:51:00;;;;;;;44.50;14.70;;;;;;;;;;5117819;27;20296;-70
2023/09/29 05:53:26;;;;;;;42.27;14.10;;;;;;;;;;5135913;27;20047;-71
2023/09/29 05:55:53;;;;;;;41.63;14.90;;;;;;;;;;5135983;27;20329;-70
2023/09/29 05:58:20;;;;;;;34.83;14.00;;;;;;;;;;5135682;27;20050;-71
2023/09/29 06:00:46;;;;;;;50.13;14.52;;;;;;;;;;5135795;27;20047;-71
2023/09/29 06:03:12;;;;;;;37.47;13.17;;;;;;;;;;5117919;27;20043;-71
2023/09/29 06:05:39;;;;;;;45.80;15.40;;;;;;;;;;5136118;27;20035;-70
2023/09/29 06:08:06;;;;;;;42.72;13.75;;;;;;;;;;5135596;27;20371;-70
2023/09/29 06:10:32;;;;;;;42.35;13.88;;;;;;;;;;5136033;27;20051;-72
2023/09/29 06:12:59;;;;;;;42.85;13.52;;;;;;;;;;5117506;27;20047;-70
2023/09/29 06:15:25;;;;;;;43.00;12.30;;;;;;;;;;5135887;27;20047;-71
2023/09/29 06:17:51;;;;;;;40.70;12.80;;;;;;;;;;5117765;27;20395;-70
2023/09/29 06:20:18;;;;;;;39.03;11.47;;;;;;;;;;5135426;27;20312;-71
2023/09/29 06:22:45;;;;;;;35.78;11.30;;;;;;;;;;5135881;27;20054;-70
2023/09/29 06:25:11;;;;;;;38.40;12.55;;;;;;;;;;5117786;27;20050;-70
2023/09/29 06:27:37;;;;;;;36.60;12.20;;;;;;;;;;5134961;27;20092;-71
2023/09/29 06:30:03;;;;;;;33.20;11.93;;;;;;;;;;5135067;27;20149;-71
2023/09/29 06:32:29;;;;;;;38.65;12.23;;;;;;;;;;5117165;27;20055;-71
2023/09/29 06:34:55;;;;;;;35.93;12.17;;;;;;;;;;5135206;27;20134;-69
2023/09/29 06:37:21;;;;;;;34.20;12.40;;;;;;;;;;5134936;27;20280;-70
2023/09/29 06:39:48;;;;;;;35.10;13.02;;;;;;;;;;5116896;27;20059;-70
2023/09/29 06:42:14;;;;;;;38.28;12.38;;;;;;;;;;5134921;27;20047;-70
2023/09/29 06:44:41;;;;;;;39.28;12.65;;;;;;;;;;5099837;27;20128;-70
2023/09/29 06:47:07;;;;;;;37.53;12.25;;;;;;;;;;5134916;27;20107;-71
2023/09/29 06:49:34;;;;;;;34.90;12.87;;;;;;;;;;5134910;27;20083;-71
2023/09/29 06:52:00;;;;;;;39.63;13.80;;;;;;;;;;5116571;27;20720;-70
2023/09/29 06:54:26;;;;;;;30.33;11.73;;;;;;;;;;5116521;27;20050;-72
2023/09/29 06:56:52;;;;;;;32.70;11.43;;;;;;;;;;5134839;27;20092;-71
2023/09/29 06:59:18;;;;;;;34.17;11.67;;;;;;;;;;5116333;27;20269;-71
2023/09/29 07:01:44;;;;;;;36.57;12.23;;;;;;;;;;5082861;27;20395;-70
2023/09/29 07:04:10;;;;;;;42.53;12.47;;;;;;;;;;5134690;27;20043;-71
2023/09/29 07:06:36;;;;;;;32.57;11.90;;;;;;;;;;5099358;27;20301;-71
2023/09/29 07:09:03;;;;;;;31.88;11.05;;;;;;;;;;5135152;27;20058;-70
2023/09/29 07:11:29;;;;;;;36.40;11.38;;;;;;;;;;5134418;27;20046;-71
2023/09/29 07:13:55;;;;;;;38.03;12.50;;;;;;;;;;5100105;27;20083;-71
2023/09/29 07:16:22;;;;;;;35.97;11.60;;;;;;;;;;5099522;27;20101;-70
2023/09/29 07:18:48;;;;;;;32.10;10.57;;;;;;;;;;5134003;27;20095;-71
2023/09/29 07:21:14;;;;;;;33.70;10.77;;;;;;;;;;5134403;27;20054;-70
2023/09/29 07:23:40;;;;;;;29.90;10.85;;;;;;;;;;5099634;28;20058;-71
2023/09/29 07:26:06;;;;;;;42.63;11.30;;;;;;;;;;5134201;27;20040;-72
2023/09/29 07:28:33;;;;;;;30.37;11.33;;;;;;;;;;5134105;27;20186;-71
2023/09/29 07:30:59;;;;;;;24.77;10.15;;;;;;;;;;5133614;27;20292;-69
2023/09/29 07:33:25;;;;;;;30.83;11.13;;;;;;;;;;5099206;27;20043;-71
2023/09/29 07:35:51;;;;;;;30.42;11.45;;;;;;;;;;5099205;28;20356;-70
2023/09/29 07:38:18;;;;;;;32.97;12.00;;;;;;;;;;5115941;27;20394;-69
2023/09/29 07:40:44;;;;;;;28.67;11.73;;;;;;;;;;5134070;28;20047;-71
2023/09/29 07:43:10;;;;;;;32.88;11.63;;;;;;;;;;5134132;28;20043;-72
2023/09/29 07:45:36;;;;;;;38.67;12.10;;;;;;;;;;5115823;28;20131;-70
2023/09/29 07:48:03;;;;;;;34.55;11.75;;;;;;;;;;5134232;28;20444;-71
2023/09/29 07:50:29;;;;;;;28.85;12.15;;;;;;;;;;5134400;28;20051;-70
2023/09/29 07:52:55;;;;;;;36.63;11.67;;;;;;;;;;5115984;28;20039;-70
2023/09/29 07:55:21;;;;;;;33.53;11.53;;;;;;;;;;5133863;28;20284;-70
2023/09/29 07:57:47;;;;;;;28.83;11.13;;;;;;;;;;5116121;28;20315;-70
2023/09/29 08:00:15;;;;;;;26.43;10.50;;;;;;;;;;5134425;28;20325;-70
2023/09/29 08:02:43;;;;;;;26.85;10.70;;;;;;;;;;5115819;28;20182;-69
2023/09/29 08:05:09;;;;;;;31.38;10.90;;;;;;;;;;5133881;28;20046;-71
2023/09/29 08:07:35;;;;;;;30.52;10.90;;;;;;;;;;5133981;28;20055;-71
2023/09/29 08:10:02;;;;;;;28.45;11.18;;;;;;;;;;5133957;28;20047;-70
2023/09/29 08:12:28;;;;;;;;;;;;;;;;;;5116361;28;20399;-71
2023/09/29 08:14:54;;;;;;;33.92;12.02;;;;;;;;;;5133762;28;19926;-70
2023/09/29 08:17:20;;;;;;;30.97;10.90;;;;;;;;;;5133873;28;20055;-70
2023/09/29 08:19:47;;;;;;;29.52;10.32;;;;;;;;;;5133805;28;20043;-72
2023/09/29 08:22:13;;;;;;;28.90;10.32;;;;;;;;;;5133834;28;20463;-70
2023/09/29 08:24:39;;;;;;;31.35;9.65;;;;;;;;;;5134445;28;20043;-73
2023/09/29 08:27:06;;;;;;;25.75;8.60;;;;;;;;;;5134421;28;20047;-72
2023/09/29 08:29:32;;;;;;;;;;;;;;;;;;5116042;28;20121;-70
2023/09/29 08:32:00;;;;;;;24.70;8.00;;;;;;;;;;5134090;28;19966;-70
2023/09/29 08:34:30;;;;;;;23.63;7.97;;;;;;;;;;5133603;28;20047;-71
2023/09/29 08:36:56;;;;;;;23.58;7.40;;;;;;;;;;5133633;28;20039;-71
2023/09/29 08:39:23;;;;;;;21.70;7.60;;;;;;;;;;5133530;28;20051;-71
2023/09/29 08:41:54;;;;;;;18.20;7.35;;;;;;;;;;5133324;28;20277;-70
2023/09/29 08:44:24;;;;;;;21.58;7.43;;;;;;;;;;5115417;28;20055;-70
2023/09/29 08:46:51;;;;;;;20.23;7.82;;;;;;;;;;5115018;28;20043;-70
2023/09/29 08:49:18;;;;;;;22.42;7.07;;;;;;;;;;5133411;28;20078;-70
2023/09/29 08:51:48;;;;;;;22.52;7.65;;;;;;;;;;5117256;27;20152;-72
2023/09/29 08:54:14;;;;;;;22.20;7.22;;;;;;;;;;5119821;27;20086;-71
2023/09/29 08:56:41;;;;;;;17.88;6.50;;;;;;;;;;5136811;27;20553;-71
2023/09/29 08:59:07;;;;;;;24.77;7.25;;;;;;;;;;5137068;27;20046;-72
2023/09/29 09:01:33;;;;;;;23.00;7.63;;;;;;;;;;5137594;27;20086;-70
2023/09/29 09:03:59;;;;;;;20.73;7.18;;;;;;;;;;5137178;27;20113;-71
2023/09/29 09:06:26;;;;;;;18.63;7.43;;;;;;;;;;5119317;27;20039;-71
2023/09/29 09:08:52;;;;;;;;;;;;;;;;;;5137664;27;20043;-72
2023/09/29 09:11:19;;;;;;;25.02;7.18;;;;;;;;;;5137347;27;20301;-70
2023/09/29 09:14:07;;;;;;;20.52;7.72;;;;;;;;;;5136598;27;20083;-72
2023/09/29 09:16:34;;;;;;;19.85;6.88;;;;;;;;;;5137472;27;20047;-71
2023/09/29 09:19:13;;;;;;;29.63;7.68;;;;;;;;;;5119199;27;20086;-71
2023/09/29 09:21:39;;;;;;;19.15;7.20;;;;;;;;;;5137340;27;20046;-71
2023/09/29 09:24:17;;;;;;;19.20;7.03;;;;;;;;;;5117775;27;20130;-70
2023/09/29 09:26:43;;;;;;;22.17;7.13;;;;;;;;;;5137072;27;20085;-71
2023/09/29 09:29:10;;;;;;;16.25;6.88;;;;;;;;;;5118136;27;20096;-71
2023/09/29 09:31:46;;;;;;;23.70;7.43;;;;;;;;;;5137580;27;20063;-71
2023/09/29 09:34:15;;;;;;;19.40;6.55;;;;;;;;;;5137035;27;20050;-71
2023/09/29 09:36:45;;;;;;;18.08;6.32;;;;;;;;;;5136458;27;20035;-74
2023/09/29 09:39:11;;;;;;;17.83;6.80;;;;;;;;;;5137011;27;20047;-70
2023/09/29 09:41:38;;;;;;;20.85;6.85;;;;;;;;;;5118691;27;20399;-71
2023/09/29 09:44:04;;;;;;;;;;;;;;;;;;5136551;27;20043;-71
2023/09/29 09:46:33;;;;;;;20.45;7.40;;;;;;;;;;5136102;27;19930;-71
2023/09/29 09:49:10;;;;;;;20.10;7.28;;;;;;;;;;5117683;27;20199;-71
2023/09/29 09:51:39;;;;;;;21.95;7.63;;;;;;;;;;5136134;27;20057;-71
2023/09/29 09:54:08;;;;;;;21.40;8.10;;;;;;;;;;5136000;27;20123;-71
2023/09/29 09:56:47;;;;;;;19.63;6.70;;;;;;;;;;5135884;27;20043;-70
2023/09/29 09:59:14;;;;;;;21.73;7.78;;;;;;;;;;5117962;27;20047;-70
2023/09/29 10:01:41;;;;;;;19.38;7.10;;;;;;;;;;5135352;27;20411;-70
2023/09/29 10:04:07;;;;;;;20.55;6.85;;;;;;;;;;5117503;27;20424;-71
2023/09/29 10:06:34;;;;;;;23.02;7.93;;;;;;;;;;5117038;27;20483;-70
2023/09/29 10:09:01;;;;;;;19.50;7.78;;;;;;;;;;5099920;27;20051;-72
2023/09/29 10:11:27;;;;;;;15.45;6.63;;;;;;;;;;5117471;27;20137;-71
2023/09/29 10:14:02;;;;;;;17.27;7.03;;;;;;;;;;5117518;27;20479;-72
2023/09/29 10:16:29;;;;;;;21.75;7.00;;;;;;;;;;5136192;27;20051;-71
2023/09/29 10:18:59;;;;;;;24.63;7.35;;;;;;;;;;5135550;27;20134;-71
2023/09/29 10:21:25;;;;;;;23.85;7.53;;;;;;;;;;5135971;27;20039;-71
2023/09/29 10:23:52;;;;;;;18.67;7.30;;;;;;;;;;5135924;27;20104;-71
2023/09/29 10:26:20;;;;;;;19.30;7.55;;;;;;;;;;5135247;27;20437;-71
2023/09/29 10:28:47;;;;;;;22.95;7.65;;;;;;;;;;5135535;27;20058;-72
2023/09/29 10:31:14;;;;;;;17.80;7.38;;;;;;;;;;5135079;27;20066;-71
2023/09/29 10:33:55;;;;;;;19.90;7.20;;;;;;;;;;5135259;27;20121;-71
2023/09/29 10:36:25;;;;;;;21.55;7.93;;;;;;;;;;5117344;27;20138;-70
2023/09/29 10:38:53;;;;;;;22.38;7.57;;;;;;;;;;5117627;27;20122;-71
2023/09/29 10:41:21;;;;;;;18.52;8.13;;;;;;;;;;5117099;27;20070;-70
2023/09/29 10:43:48;;;;;;;22.42;7.93;;;;;;;;;;5134730;27;20487;-70
2023/09/29 10:46:20;;;;;;;19.98;7.53;;;;;;;;;;5116631;27;20050;-71
2023/09/29 10:48:46;;;;;;;25.85;7.53;;;;;;;;;;5135180;27;20043;-71
2023/09/29 10:51:12;;;;;;;;;;;;;;;;;;5135208;27;20138;-70
2023/09/29 10:53:39;;;;;;;20.02;7.93;;;;;;;;;;5135351;27;20351;-71
2023/09/29 10:56:05;;;;;;;25.02;7.70;;;;;;;;;;5134699;27;20043;-70
2023/09/29 10:58:37;;;;;;;22.30;7.72;;;;;;;;;;5116417;27;20046;-71
2023/09/29 11:01:03;;;;;;;20.05;7.75;;;;;;;;;;5116393;27;20050;-72
2023/09/29 11:03:30;;;;;;;21.20;7.32;;;;;;;;;;5117347;27;20203;-70
2023/09/29 11:06:08;;;;;;;24.67;7.32;;;;;;;;;;5116364;27;20092;-71
2023/09/29 11:08:38;;;;;;;22.50;7.65;;;;;;;;;;5134231;27;20487;-70
2023/09/29 11:11:06;;;;;;;22.95;7.70;;;;;;;;;;5134773;27;20050;-70
2023/09/29 11:13:32;;;;;;;27.88;8.38;;;;;;;;;;5133896;27;20479;-71
2023/09/29 11:15:59;;;;;;;20.08;6.95;;;;;;;;;;5116231;27;20039;-71
2023/09/29 11:18:35;;;;;;;22.52;8.32;;;;;;;;;;5115895;27;20043;-71
2023/09/29 11:21:11;;;;;;;21.23;7.30;;;;;;;;;;5134441;27;20039;-71
2023/09/29 11:23:41;;;;;;;23.50;7.18;;;;;;;;;;5116227;27;20043;-71
2023/09/29 11:26:11;;;;;;;25.52;6.80;;;;;;;;;;5134156;27;20372;-70
2023/09/29 11:28:44;;;;;;;25.10;7.28;;;;;;;;;;5116959;28;20100;-70
2023/09/29 11:31:12;;;;;;;20.67;7.43;;;;;;;;;;5134243;27;20054;-72
2023/09/29 11:33:39;;;;;;;18.30;7.07;;;;;;;;;;5134359;27;20096;-71
2023/09/29 11:36:15;;;;;;;26.65;7.32;;;;;;;;;;5098935;28;20051;-72
2023/09/29 11:38:42;;;;;;;19.30;7.45;;;;;;;;;;5134888;28;20047;-71
2023/09/29 11:41:08;;;;;;;16.98;6.35;;;;;;;;;;5134199;28;20051;-72
2023/09/29 11:43:36;;;;;;;23.15;7.68;;;;;;;;;;5099245;28;20094;-71
2023/09/29 11:46:03;;;;;;;20.95;7.57;;;;;;;;;;5134096;28;20056;-71
2023/09/29 11:48:29;;;;;;;20.42;7.32;;;;;;;;;;5116561;28;20133;-71
2023/09/29 11:50:56;;;;;;;26.45;8.23;;;;;;;;;;5134162;28;20043;-71
2023/09/29 11:53:22;;;;;;;23.80;7.93;;;;;;;;;;5115962;28;20047;-71
2023/09/29 11:55:48;;;;;;;21.02;6.68;;;;;;;;;;5134413;28;20047;-71
2023/09/29 11:58:14;;;;;;;24.20;7.72;;;;;;;;;;5133641;28;20474;-72
2023/09/29 12:00:41;;;;;;;18.65;7.75;;;;;;;;;;5133888;28;20132;-71
2023/09/29 12:03:08;;;;;;;21.83;7.88;;;;;;;;;;5115918;28;20071;-70
2023/09/29 12:05:34;;;;;;;19.48;8.35;;;;;;;;;;5134032;28;20039;-70
2023/09/29 12:08:02;;;;;;;;;;;;;;;;;;5134075;28;20083;-71
2023/09/29 12:10:28;;;;;;;23.50;8.52;;;;;;;;;;5115393;28;19926;-71
2023/09/29 12:12:54;;;;;;;19.40;8.15;;;;;;;;;;5133759;28;20126;-71
2023/09/29 12:15:21;;;;;;;19.88;8.65;;;;;;;;;;5133788;28;20046;-71
2023/09/29 12:17:47;;;;;;;22.70;7.75;;;;;;;;;;5134384;28;20043;-70
2023/09/29 12:20:14;;;;;;;33.03;8.27;;;;;;;;;;5133665;28;20051;-71
2023/09/29 12:22:44;;;;;;;24.40;9.18;;;;;;;;;;5133656;28;20051;-71
2023/09/29 12:25:18;;;;;;;22.98;8.88;;;;;;;;;;5134910;27;20535;-69
2023/09/29 12:27:48;;;;;;;20.25;8.15;;;;;;;;;;5138295;27;20074;-73
2023/09/29 12:30:14;;;;;;;27.10;9.65;;;;;;;;;;5137271;27;20100;-71
2023/09/29 12:32:41;;;;;;;23.55;8.63;;;;;;;;;;5137610;27;20059;-68
2023/09/29 12:35:09;;;;;;;19.20;8.65;;;;;;;;;;5138014;27;20054;-71
2023/09/29 12:37:35;;;;;;;21.05;8.73;;;;;;;;;;5138166;27;20051;-73
2023/09/29 12:40:01;;;;;;;24.02;8.63;;;;;;;;;;5103132;27;20050;-69
2023/09/29 12:42:27;;;;;;;22.55;8.95;;;;;;;;;;5137383;27;20078;-69
2023/09/29 12:44:53;;;;;;;19.05;8.75;;;;;;;;;;5137020;27;20479;-70
2023/09/29 12:47:19;;;;;;;20.13;8.63;;;;;;;;;;5137220;27;20081;-69
2023/09/29 12:49:46;;;;;;;16.85;7.43;;;;;;;;;;5137176;27;20050;-69
2023/09/29 12:52:13;;;;;;;14.73;7.28;;;;;;;;;;5137860;27;20388;-68
2023/09/29 12:54:40;;;;;;;21.85;7.90;;;;;;;;;;5136999;27;20513;-68
2023/09/29 12:57:06;;;;;;;19.50;7.68;;;;;;;;;;5137064;27;20035;-69
2023/09/29 12:59:36;;;;;;;18.50;7.63;;;;;;;;;;5118686;27;20058;-69
2023/09/29 13:02:05;;;;;;;23.15;9.40;;;;;;;;;;5137047;27;20043;-69
2023/09/29 13:04:32;;;;;;;21.75;7.75;;;;;;;;;;5137000;27;20482;-68
2023/09/29 13:06:58;;;;;;;22.98;8.32;;;;;;;;;;5136914;27;20046;-71
2023/09/29 13:09:24;;;;;;;;;;;;;;;;;;5137260;27;20044;-69
2023/09/29 13:11:51;;;;;;;7.68;2.00;;;;;;;;;;5136940;27;19941;-69
2023/09/29 13:14:17;;;;;;;6.93;1.83;;;;;;;;;;5118501;27;20043;-68
2023/09/29 13:16:43;;;;;;;5.60;0.85;;;;;;;;;;5137011;27;20065;-69
2023/09/29 13:19:09;;;;;;;6.72;1.00;;;;;;;;;;5136756;27;20047;-69
2023/09/29 13:21:36;;;;;;;11.20;1.58;;;;;;;;;;5136536;27;20043;-69
2023/09/29 13:24:02;;;;;;;4.78;1.05;;;;;;;;;;5119135;27;20147;-69
2023/09/29 13:26:29;;;;;;;6.03;1.35;;;;;;;;;;5136971;27;20079;-70
2023/09/29 13:28:55;;;;;;;11.82;1.20;;;;;;;;;;5136596;27;20043;-70
2023/09/29 13:31:21;;;;;;;4.55;0.98;;;;;;;;;;5136147;27;20059;-70
2023/09/29 13:33:47;;;;;;;10.27;1.40;;;;;;;;;;5118321;27;20055;-69
2023/09/29 13:36:13;;;;;;;5.43;1.00;;;;;;;;;;5136084;27;20050;-69
2023/09/29 13:38:39;;;;;;;5.25;1.10;;;;;;;;;;5136137;27;20058;-69
2023/09/29 13:41:06;;;;;;;6.17;1.30;;;;;;;;;;5136373;27;20103;-68
2023/09/29 13:43:32;;;;;;;4.75;1.00;;;;;;;;;;5136336;27;20321;-69
2023/09/29 13:45:58;;;;;;;5.60;0.80;;;;;;;;;;5118615;27;20489;-68
2023/09/29 13:48:24;;;;;;;5.53;0.60;;;;;;;;;;5136434;27;20393;-68
2023/09/29 13:50:50;;;;;;;6.95;1.15;;;;;;;;;;5100926;27;20050;-69
2023/09/29 13:53:17;;;;;;;3.83;0.77;;;;;;;;;;5117977;27;20047;-68
2023/09/29 13:55:43;;;;;;;6.07;0.90;;;;;;;;;;5117983;27;20076;-68
2023/09/29 13:58:09;;;;;;;6.97;0.90;;;;;;;;;;5118551;27;20400;-68
2023/09/29 14:00:36;;;;;;;6.03;1.17;;;;;;;;;;5136035;27;20050;-69
2023/09/29 14:03:03;;;;;;;7.40;1.20;;;;;;;;;;5136096;27;20126;-69
2023/09/29 14:05:29;;;;;;;5.40;1.20;;;;;;;;;;5135642;27;20058;-69
2023/09/29 14:07:56;;;;;;;6.00;1.05;;;;;;;;;;5135990;27;20085;-68
2023/09/29 14:10:22;;;;;;;7.05;1.02;;;;;;;;;;5135730;27;20047;-68
2023/09/29 14:12:49;;;;;;;6.18;1.08;;;;;;;;;;5135629;27;20555;-69
2023/09/29 14:15:15;;;;;;;7.35;1.90;;;;;;;;;;5135349;27;20495;-68
2023/09/29 14:17:41;;;;;;;10.25;2.42;;;;;;;;;;5135583;27;20047;-68
2023/09/29 14:20:08;;;;;;;7.30;1.20;;;;;;;;;;5135584;27;20459;-69
2023/09/29 14:22:34;;;;;;;9.55;1.42;;;;;;;;;;5135630;27;20493;-69
2023/09/29 14:25:01;;;;;;;9.60;1.67;;;;;;;;;;5117148;27;20050;-68